createdAt,value
2022-09-27T02:55:32.850Z,12.89
2022-09-27T03:00:42.923Z,13.02
2022-09-27T03:08:09.315Z,12.74
2022-09-27T03:13:09.265Z,13.02
2022-09-27T03:18:09.206Z,12.78
2022-09-27T03:23:09.290Z,12.85
2022-09-27T03:28:09.151Z,12.66
2022-09-27T03:33:09.001Z,12.66
2022-09-27T03:38:09.041Z,12.70
2022-09-27T03:43:08.837Z,12.89
2022-09-27T03:48:09.014Z,12.79
2022-09-27T03:53:08.767Z,12.79
2022-09-27T04:06:02.823Z,12.79
2022-09-27T04:20:41.153Z,12.69
2022-09-27T04:25:40.956Z,12.74
2022-09-27T04:30:40.818Z,12.67
2022-09-27T04:35:40.626Z,12.48
2022-09-27T05:00:47.196Z,12.85
2022-09-27T05:55:40.936Z,13.79
2022-09-27T06:00:40.473Z,13.56
2022-09-27T06:05:40.420Z,14.01
2022-09-27T06:10:40.460Z,14.34
2022-09-27T06:15:40.440Z,14.68
2022-09-27T06:20:40.229Z,14.90
2022-09-27T06:25:40.326Z,14.53
2022-09-27T06:30:40.211Z,13.94
2022-09-27T06:35:40.146Z,14.13
2022-09-27T06:40:40.147Z,14.12
2022-09-27T06:45:43.022Z,14.07
2022-09-27T06:50:39.801Z,12.78
2022-09-27T07:01:09.366Z,13.21
2022-09-27T07:06:08.814Z,13.33
2022-09-27T07:11:08.766Z,13.06
2022-09-27T07:16:08.685Z,13.15
2022-09-27T07:35:52.076Z,14.04
2022-09-27T07:40:52.118Z,13.70
2022-09-27T07:45:59.524Z,14.43
2022-09-27T07:50:51.461Z,13.63
2022-09-27T07:57:10.504Z,13.76
2022-09-27T08:02:10.312Z,13.52
2022-09-27T08:10:13.430Z,13.38
2022-09-27T08:15:13.260Z,13.73
2022-09-27T08:20:13.163Z,13.71
2022-09-27T08:25:13.058Z,14.10
2022-09-27T08:30:13.060Z,14.06
2022-09-27T08:35:12.967Z,14.68
2022-09-27T08:42:44.286Z,14.98
2022-09-27T08:51:13.665Z,14.49
2022-09-27T08:57:30.796Z,14.72
2022-09-27T09:04:09.086Z,14.07
2022-09-27T09:16:17.634Z,14.88
2022-09-27T09:21:22.516Z,14.44
2022-09-27T09:26:14.374Z,14.39
2022-09-27T09:31:14.345Z,14.17
2022-09-27T09:36:22.134Z,14.38
2022-09-27T09:41:14.470Z,14.24
2022-09-27T09:46:14.569Z,14.07
2022-09-27T09:51:14.409Z,14.02
2022-09-27T10:23:23.240Z,13.74
2022-09-27T10:28:22.449Z,14.12
2022-09-27T10:34:39.623Z,14.90
2022-09-27T10:45:50.549Z,14.78
2022-09-27T10:50:52.894Z,15.41
2022-09-27T10:55:50.326Z,15.28
2022-09-27T11:00:50.231Z,15.64
2022-09-27T11:05:50.047Z,16.18
2022-09-27T11:13:31.952Z,15.60
2022-09-27T11:18:31.645Z,15.93
2022-09-27T11:23:32.078Z,16.27
2022-09-27T11:28:31.588Z,15.82
2022-09-27T11:33:31.585Z,15.06
2022-09-27T11:38:51.811Z,14.60
2022-09-27T11:43:32.345Z,15.17
2022-09-27T11:48:31.221Z,15.24
2022-09-27T11:53:31.261Z,15.60
2022-09-27T11:58:31.263Z,16.00
2022-09-27T12:03:34.068Z,15.89
2022-09-27T12:08:31.038Z,15.59
2022-09-27T12:13:31.045Z,16.00
2022-09-27T12:18:31.104Z,16.92
2022-09-27T12:23:36.406Z,16.74
2022-09-27T12:28:31.897Z,16.45
2022-09-27T12:33:30.691Z,16.95
2022-09-27T12:38:30.695Z,16.48
2022-09-27T12:43:30.548Z,17.07
2022-09-27T12:48:30.507Z,16.45
2022-09-27T12:53:30.373Z,16.74
2022-09-27T12:58:30.477Z,16.95
2022-09-27T13:03:33.605Z,17.08
2022-09-27T13:08:30.245Z,16.03
2022-09-27T13:13:34.215Z,16.15
2022-09-27T13:18:31.144Z,15.19
2022-09-27T14:27:07.816Z,14.43
2022-09-27T15:18:34.549Z,15.81
2022-09-27T16:10:38.206Z,15.08
2022-09-27T16:15:37.044Z,14.47
